Alamo Heights, Texas
Current Conditions -  °F | °C
As of 6:51 PM on Friday 31 Oct 2014 (Local Time) from KSAT Reporting Station
Few Clouds Few Clouds  
Wind Chill: 72°   Ceiling: Unl
Heat Index: 72°   Visibility: 10mi
Dew Point: 36°   Wind: 10mph
Humidity: 27%   Direction: 20°NNE
Pressure: 30.23"   Gusts: NA
Location:  29.4797°N, 98.4508°W
Report Text: KSAT 312351Z 02009KT 10SM FEW250 22/02 A3023 RMK AO2 SLP223 T02220022 10261 20222 53006
Loading
Personal Weather Stations






























Interactive Weather Map New forecast layout! Learn more

10-Day Weather Forecast

Advertisements
Track Severe Weather on mobile